createdAt,value
2019-06-08T06:40:06.110Z,52.86
2019-06-08T06:41:06.095Z,52.86
2019-06-08T06:42:06.081Z,52.54
2019-06-08T06:43:06.074Z,52.44
2019-06-08T06:44:06.072Z,52.15
2019-06-08T06:45:06.047Z,52.15
2019-06-08T06:46:06.041Z,51.83
2019-06-08T06:47:06.025Z,51.37
2019-06-08T06:48:06.013Z,50.72
2019-06-08T06:49:06.010Z,49.99
2019-06-08T06:50:05.993Z,50.15
2019-06-08T06:51:05.982Z,48.61
2019-06-08T06:52:05.970Z,48.30
2019-06-08T06:53:05.959Z,46.99
2019-06-08T06:54:05.957Z,48.71
2019-06-08T06:55:05.937Z,48.41
2019-06-08T06:56:05.923Z,48.33
2019-06-08T06:57:05.917Z,48.35
2019-06-08T06:58:05.906Z,48.98
2019-06-08T06:59:05.905Z,49.91
2019-06-08T07:00:05.928Z,50.64
2019-06-08T07:01:05.881Z,51.25
2019-06-08T07:02:05.858Z,51.57
2019-06-08T07:03:05.848Z,50.67
2019-06-08T07:04:05.837Z,50.59
2019-06-08T07:05:05.836Z,50.41
2019-06-08T07:06:05.815Z,51.32
2019-06-08T07:07:05.832Z,52.13
2019-06-08T07:08:05.788Z,52.03
2019-06-08T07:09:05.778Z,52.23
2019-06-08T07:10:05.778Z,52.74
2019-06-08T07:11:05.758Z,52.94
2019-06-08T07:12:05.749Z,53.14
2019-06-08T07:13:05.735Z,52.66
2019-06-08T07:14:05.721Z,52.76
2019-06-08T07:15:05.723Z,53.07
2019-06-08T07:16:17.846Z,53.37
2019-06-08T07:17:06.689Z,53.67
2019-06-08T07:18:05.688Z,53.07
2019-06-08T07:19:05.670Z,52.86
2019-06-08T07:20:05.664Z,52.97
2019-06-08T07:21:05.645Z,52.97
2019-06-08T07:22:05.636Z,53.37
2019-06-08T07:23:05.623Z,52.46
2019-06-08T07:24:05.624Z,52.56
2019-06-08T07:25:05.608Z,52.48
2019-06-08T07:26:05.590Z,53.27
2019-06-08T07:27:07.587Z,52.26
2019-06-08T07:28:05.568Z,52.66
2019-06-08T07:29:05.556Z,52.66
2019-06-08T07:30:05.586Z,52.56
2019-06-08T07:31:05.534Z,52.86
2019-06-08T07:32:05.522Z,52.86
2019-06-08T07:33:05.513Z,52.86
2019-06-08T07:34:05.500Z,52.56
2019-06-08T07:35:05.501Z,52.94
2019-06-08T07:36:05.475Z,52.44
2019-06-08T07:37:05.468Z,52.54
2019-06-08T07:38:05.617Z,51.60
2019-06-08T07:39:05.443Z,51.81
2019-06-08T07:40:05.564Z,51.17
2019-06-08T07:41:05.420Z,50.44
2019-06-08T07:42:05.415Z,50.64
2019-06-08T07:43:05.402Z,50.74
2019-06-08T07:44:05.390Z,50.14
2019-06-08T07:45:05.391Z,50.14
2019-06-08T07:46:05.380Z,50.44
2019-06-08T07:47:05.354Z,50.84
2019-06-08T07:48:05.342Z,50.64
2019-06-08T07:49:05.334Z,50.72
2019-06-08T07:50:05.339Z,50.54
2019-06-08T07:51:05.307Z,50.34
2019-06-08T07:52:10.274Z,49.02
2019-06-08T07:53:06.284Z,50.44
2019-06-08T07:54:05.273Z,50.64
2019-06-08T07:55:05.268Z,50.32
2019-06-08T07:56:05.261Z,49.73
2019-06-08T07:57:05.240Z,50.64
2019-06-08T07:58:05.232Z,50.34
2019-06-08T07:59:05.223Z,50.14
2019-06-08T08:00:09.460Z,48.95
2019-06-08T08:01:08.228Z,50.46
2019-06-08T08:02:05.184Z,50.67
2019-06-08T08:03:05.174Z,50.77
2019-06-08T08:04:05.164Z,50.99
2019-06-08T08:05:05.162Z,50.79
2019-06-08T08:06:05.147Z,50.59
2019-06-08T08:07:05.139Z,50.49
2019-06-08T08:08:05.120Z,50.57
2019-06-08T08:09:05.107Z,51.17
2019-06-08T08:10:05.157Z,50.44
2019-06-08T08:11:05.095Z,50.24
2019-06-08T08:12:05.079Z,50.34
2019-06-08T08:13:05.061Z,50.21
2019-06-08T08:14:05.049Z,50.01
2019-06-08T08:15:05.039Z,49.69
2019-06-08T08:16:05.040Z,49.87
2019-06-08T08:17:05.019Z,48.63
2019-06-08T08:18:05.007Z,48.91
2019-06-08T08:19:04.994Z,46.67
2019-06-08T08:20:04.984Z,46.87
2019-06-08T08:21:15.470Z,46.87
2019-06-08T08:22:19.551Z,46.97
2019-06-08T08:23:08.972Z,46.75
2019-06-08T08:24:07.184Z,44.71
2019-06-08T08:25:05.220Z,46.25
2019-06-08T08:26:04.925Z,46.34
2019-06-08T08:27:04.912Z,46.60
2019-06-08T08:28:04.897Z,46.30
2019-06-08T08:29:04.887Z,45.67
2019-06-08T08:30:04.879Z,45.00
2019-06-08T08:31:04.879Z,46.00
2019-06-08T08:32:04.855Z,44.19
2019-06-08T08:33:07.563Z,45.12
2019-06-08T08:34:05.914Z,45.06
2019-06-08T08:35:04.836Z,45.06
2019-06-08T08:36:07.156Z,45.07
2019-06-08T08:37:07.099Z,46.23
2019-06-08T08:38:07.352Z,46.94
2019-06-08T08:39:04.774Z,47.06
2019-06-08T08:40:04.761Z,46.96
2019-06-08T08:41:10.058Z,46.73
2019-06-08T08:42:08.335Z,48.15
2019-06-08T08:43:04.731Z,47.95
2019-06-08T08:44:05.107Z,48.37
2019-06-08T08:45:07.870Z,49.51
2019-06-08T08:46:04.695Z,49.01
2019-06-08T08:47:04.696Z,48.80
2019-06-08T08:48:21.058Z,48.80
2019-06-08T08:49:11.987Z,49.61
2019-06-08T08:50:07.409Z,50.44
2019-06-08T08:51:04.644Z,50.24
2019-06-08T08:52:04.640Z,50.64
2019-06-08T08:53:04.622Z,50.44
2019-06-08T08:54:05.443Z,50.77
2019-06-08T08:55:04.599Z,50.54
2019-06-08T08:56:04.586Z,51.15
2019-06-08T08:57:05.308Z,50.67
2019-06-08T08:58:04.566Z,51.05
2019-06-08T08:59:04.555Z,51.35
2019-06-08T09:00:05.289Z,51.68
2019-06-08T09:01:04.534Z,51.57
2019-06-08T09:02:04.535Z,51.65
2019-06-08T09:03:24.335Z,51.76
2019-06-08T09:04:06.548Z,50.54
2019-06-08T09:05:04.491Z,50.74
2019-06-08T09:06:04.714Z,51.15
2019-06-08T09:07:07.780Z,50.84
2019-06-08T09:08:05.455Z,51.17
2019-06-08T09:09:04.443Z,51.55
2019-06-08T09:10:04.522Z,51.76
2019-06-08T09:11:04.422Z,51.96
2019-06-08T09:12:04.673Z,51.15
2019-06-08T09:13:04.798Z,50.54
2019-06-08T09:14:09.571Z,50.64
2019-06-08T09:15:08.319Z,50.64
2019-06-08T09:16:04.613Z,50.39
2019-06-08T09:17:04.421Z,48.83
2019-06-08T09:18:04.396Z,47.67
2019-06-08T09:19:04.730Z,46.75
2019-06-08T09:20:04.454Z,47.25
2019-06-08T09:21:04.529Z,46.70
2019-06-08T09:22:04.430Z,46.76
2019-06-08T09:23:14.628Z,44.53
2019-06-08T09:24:07.490Z,45.13
2019-06-08T09:25:04.603Z,44.43
2019-06-08T09:26:11.582Z,45.03
2019-06-08T09:27:07.781Z,44.81
2019-06-08T09:28:04.870Z,44.51
2019-06-08T09:29:10.092Z,43.66
2019-06-08T09:30:05.274Z,44.44
2019-06-08T09:31:04.287Z,43.90
2019-06-08T09:32:04.302Z,42.07
2019-06-08T09:33:04.357Z,41.57
2019-06-08T09:34:10.746Z,41.88
2019-06-08T09:35:05.191Z,41.79
2019-06-08T09:36:05.025Z,43.46
2019-06-08T09:37:05.127Z,43.68
2019-06-08T09:38:05.037Z,44.00
2019-06-08T09:39:05.341Z,44.71
2019-06-08T09:40:05.155Z,44.23
2019-06-08T09:41:05.452Z,44.07
2019-06-08T09:42:05.131Z,44.79
2019-06-08T09:43:10.340Z,45.39
2019-06-08T09:44:05.966Z,46.83
2019-06-08T09:45:05.512Z,46.65
2019-06-08T09:46:05.329Z,46.77
2019-06-08T09:47:09.429Z,46.87
2019-06-08T09:48:06.448Z,47.07
2019-06-08T09:49:07.607Z,46.77
2019-06-08T09:50:05.702Z,47.70
2019-06-08T09:51:05.469Z,46.89
2019-06-08T09:52:05.152Z,46.71
2019-06-08T09:53:22.046Z,47.22
2019-06-08T09:54:08.535Z,48.53
2019-06-08T09:55:06.949Z,49.24
2019-06-08T09:56:06.437Z,49.26
2019-06-08T09:57:06.643Z,48.73
2019-06-08T09:58:06.655Z,48.63
2019-06-08T09:59:07.127Z,48.53
2019-06-08T10:00:14.471Z,48.33
2019-06-08T10:01:06.142Z,49.04
2019-06-08T10:02:09.032Z,49.04
2019-06-08T10:03:06.500Z,48.41
2019-06-08T10:04:06.064Z,49.41
2019-06-08T10:05:04.549Z,48.61
2019-06-08T10:06:08.126Z,49.21
2019-06-08T10:07:05.729Z,49.01
2019-06-08T10:08:04.617Z,49.04
2019-06-08T10:09:04.816Z,48.93
2019-06-08T10:10:04.812Z,48.63
2019-06-08T10:11:05.674Z,49.13
2019-06-08T10:12:05.035Z,48.63
2019-06-08T10:13:06.530Z,49.24
2019-06-08T10:14:08.736Z,48.50
2019-06-08T10:15:04.793Z,49.11
2019-06-08T10:16:06.888Z,48.71
2019-06-08T10:17:06.658Z,48.30
2019-06-08T10:18:04.840Z,49.21
2019-06-08T10:19:06.884Z,48.91
2019-06-08T10:20:04.996Z,49.01
2019-06-08T10:21:06.023Z,48.69
2019-06-08T10:22:05.027Z,48.96
2019-06-08T10:23:05.566Z,47.13
2019-06-08T10:24:06.319Z,47.15
2019-06-08T10:25:07.493Z,47.45
2019-06-08T10:26:05.167Z,48.26
2019-06-08T10:27:03.671Z,48.26
2019-06-08T10:28:07.796Z,47.88
2019-06-08T10:29:06.273Z,47.15
2019-06-08T10:30:07.009Z,48.38
2019-06-08T10:31:05.219Z,48.89
2019-06-08T10:32:03.769Z,48.69
2019-06-08T10:33:05.185Z,48.89
2019-06-08T10:34:05.379Z,48.18
2019-06-08T10:35:05.351Z,48.28
2019-06-08T10:36:05.310Z,49.07
2019-06-08T10:37:09.911Z,48.58
2019-06-08T10:38:07.118Z,49.19
2019-06-08T10:39:07.266Z,48.18
2019-06-08T10:40:06.359Z,48.99
2019-06-08T10:41:14.090Z,49.16
2019-06-08T10:42:05.266Z,48.26
2019-06-08T10:43:04.498Z,47.83
2019-06-08T10:44:03.534Z,48.24
2019-06-08T10:45:07.652Z,48.34
2019-06-08T10:46:10.226Z,48.24
2019-06-08T10:47:06.595Z,48.74
2019-06-08T10:48:04.815Z,48.74
2019-06-08T10:49:04.171Z,48.66
2019-06-08T10:50:09.149Z,48.36
2019-06-08T10:51:05.881Z,48.49
2019-06-08T10:52:05.254Z,48.38
2019-06-08T10:53:05.866Z,48.58
2019-06-08T10:54:04.379Z,49.49
2019-06-08T10:55:05.033Z,50.20
2019-06-08T10:56:05.140Z,50.10
2019-06-08T10:57:07.235Z,49.49
2019-06-08T10:58:04.414Z,49.77
2019-06-08T10:59:04.878Z,48.99
2019-06-08T11:00:13.659Z,49.27
2019-06-08T11:01:07.843Z,48.66
2019-06-08T11:02:07.328Z,49.44
2019-06-08T11:03:06.718Z,48.69
2019-06-08T11:04:03.389Z,48.27
2019-06-08T11:05:07.361Z,47.16
2019-06-08T11:06:04.841Z,47.49
2019-06-08T11:07:07.178Z,47.89
2019-06-08T11:08:06.064Z,48.41
2019-06-08T11:09:06.106Z,48.32
2019-06-08T11:10:05.649Z,47.71
2019-06-08T11:11:04.875Z,48.03
2019-06-08T11:12:03.907Z,47.13
2019-06-08T11:13:08.038Z,47.23
2019-06-08T11:14:05.694Z,48.34
2019-06-08T11:15:03.610Z,47.99
2019-06-08T11:16:04.436Z,47.39
2019-06-08T11:17:03.020Z,47.00
2019-06-08T11:18:05.865Z,47.11
2019-06-08T11:19:04.274Z,47.61
2019-06-08T11:20:04.412Z,47.20
2019-06-08T11:21:03.745Z,47.59
2019-06-08T11:22:07.395Z,48.21
2019-06-08T11:23:05.548Z,48.90
2019-06-08T11:24:15.502Z,48.39
2019-06-08T11:25:05.950Z,47.19
2019-06-08T11:26:12.084Z,46.88
2019-06-08T11:27:05.569Z,47.99
2019-06-08T11:28:03.703Z,47.49
2019-06-08T11:29:03.037Z,47.08
2019-06-08T11:30:10.816Z,46.86
2019-06-08T11:31:04.043Z,47.14
2019-06-08T11:32:04.177Z,47.34
2019-06-08T11:33:03.811Z,46.84
2019-06-08T11:34:03.973Z,46.54
2019-06-08T11:35:04.093Z,46.59
2019-06-08T11:36:06.094Z,45.49
2019-06-08T11:37:05.152Z,46.19
2019-06-08T11:38:03.870Z,46.11
2019-06-08T11:39:04.029Z,46.61
2019-06-08T11:40:04.431Z,46.72
2019-06-08T11:41:04.594Z,47.02
2019-06-08T11:42:04.311Z,46.54
2019-06-08T11:43:04.307Z,46.84
2019-06-08T11:44:03.832Z,47.16
2019-06-08T11:45:02.706Z,46.86
2019-06-08T11:46:02.693Z,46.88
2019-06-08T11:47:02.706Z,46.78
2019-06-08T11:48:02.844Z,47.08
2019-06-08T11:49:05.874Z,47.20
2019-06-08T11:50:02.956Z,47.61
2019-06-08T11:51:02.693Z,46.91
2019-06-08T11:52:02.635Z,46.70
2019-06-08T11:53:04.011Z,47.61
2019-06-08T11:54:02.995Z,46.91
2019-06-08T11:55:04.147Z,46.80
2019-06-08T11:56:02.768Z,45.47
2019-06-08T11:57:02.864Z,46.18
2019-06-08T11:58:02.922Z,46.20
2019-06-08T11:59:03.073Z,46.58
2019-06-08T12:00:09.221Z,46.36
2019-06-08T12:01:05.044Z,45.63
2019-06-08T12:02:03.537Z,45.73
2019-06-08T12:03:03.781Z,45.13
2019-06-08T12:04:03.591Z,45.55
2019-06-08T12:05:03.695Z,45.35
2019-06-08T12:06:02.483Z,45.13
2019-06-08T12:07:02.452Z,45.45
2019-06-08T12:08:02.856Z,46.15
2019-06-08T12:09:02.717Z,46.66
2019-06-08T12:10:02.984Z,46.76
2019-06-08T12:11:03.854Z,46.23
2019-06-08T12:12:02.554Z,46.96
2019-06-08T12:13:02.597Z,46.76
2019-06-08T12:14:02.756Z,46.86
2019-06-08T12:15:03.012Z,46.38
2019-06-08T12:16:03.357Z,46.68
2019-06-08T12:17:03.402Z,46.98
2019-06-08T12:18:03.386Z,46.88
2019-06-08T12:19:04.385Z,46.86
2019-06-08T12:20:03.369Z,46.76
2019-06-08T12:21:03.693Z,46.23
2019-06-08T12:22:02.765Z,46.14
2019-06-08T12:23:02.313Z,46.34
2019-06-08T12:24:02.276Z,46.72
2019-06-08T12:25:02.264Z,45.91
2019-06-08T12:26:02.257Z,45.51
2019-06-08T12:27:10.110Z,45.25
2019-06-08T12:28:04.483Z,44.30
2019-06-08T12:29:02.209Z,44.32
2019-06-08T12:30:08.998Z,43.70
2019-06-08T12:31:03.206Z,44.32
2019-06-08T12:32:02.167Z,44.34
2019-06-08T12:33:02.176Z,44.64
2019-06-08T12:34:02.223Z,44.14
2019-06-08T12:35:02.137Z,44.20
2019-06-08T12:36:02.175Z,43.26
2019-06-08T12:37:02.115Z,42.54
2019-06-08T12:38:02.103Z,41.55
2019-06-08T12:39:02.090Z,42.13
2019-06-08T12:40:02.137Z,41.63
2019-06-08T12:41:02.077Z,41.91
2019-06-08T12:42:02.064Z,41.31
2019-06-08T12:43:02.082Z,41.80
2019-06-08T12:44:02.060Z,41.27
2019-06-08T12:45:02.028Z,41.17
2019-06-08T12:46:02.089Z,40.66
2019-06-08T12:47:02.031Z,40.09
2019-06-08T12:48:01.990Z,40.00
2019-06-08T12:49:02.089Z,40.43
2019-06-08T12:50:01.972Z,41.25
2019-06-08T12:51:01.993Z,41.97
2019-06-08T12:52:01.946Z,42.47
2019-06-08T12:53:01.935Z,42.99
2019-06-08T12:54:01.929Z,43.10
2019-06-08T12:55:06.867Z,43.32
2019-06-08T12:56:02.913Z,42.83
2019-06-08T12:57:01.891Z,43.04
2019-06-08T12:58:01.886Z,43.84
2019-06-08T12:59:01.870Z,44.14
2019-06-08T13:00:01.895Z,43.72
2019-06-08T13:01:01.866Z,42.68
2019-06-08T13:02:01.838Z,42.05
2019-06-08T13:03:01.827Z,41.88
2019-06-08T13:04:01.822Z,40.67
2019-06-08T13:05:01.807Z,41.60
2019-06-08T13:06:01.823Z,41.99
2019-06-08T13:07:01.784Z,41.82
2019-06-08T13:08:01.779Z,41.61
2019-06-08T13:09:01.759Z,41.07
2019-06-08T13:10:01.758Z,40.53
2019-06-08T13:11:01.745Z,40.97
2019-06-08T13:12:01.725Z,40.77
2019-06-08T13:13:01.714Z,41.49
2019-06-08T13:14:01.781Z,42.19
2019-06-08T13:15:01.703Z,41.89
2019-06-08T13:16:01.698Z,43.02
2019-06-08T13:17:01.683Z,41.82
2019-06-08T13:18:01.663Z,43.24
2019-06-08T13:19:01.650Z,42.49
2019-06-08T13:20:01.655Z,41.96
2019-06-08T13:21:15.675Z,39.61
2019-06-08T13:22:02.749Z,39.98
2019-06-08T13:23:01.607Z,38.14
2019-06-08T13:24:01.625Z,38.87
2019-06-08T13:25:15.626Z,39.81
2019-06-08T13:26:02.582Z,40.05
2019-06-08T13:27:01.574Z,41.38
2019-06-08T13:28:01.551Z,40.77
2019-06-08T13:29:01.541Z,40.95
2019-06-08T13:30:01.528Z,40.07
2019-06-08T13:31:01.516Z,41.19
2019-06-08T13:32:01.694Z,40.71
2019-06-08T13:33:01.549Z,41.13
2019-06-08T13:34:01.528Z,41.85
2019-06-08T13:35:01.499Z,42.66
2019-06-08T13:36:01.487Z,42.76
2019-06-08T13:37:01.469Z,43.28
2019-06-08T13:38:01.593Z,43.90
2019-06-08T13:39:01.427Z,44.60
2019-06-08T13:40:01.428Z,44.71
2019-06-08T13:41:01.410Z,43.90
2019-06-08T13:42:01.440Z,44.00
2019-06-08T13:43:01.392Z,44.60
2019-06-08T13:44:01.379Z,44.48
2019-06-08T13:45:01.363Z,44.24
2019-06-08T13:46:01.350Z,43.90
2019-06-08T13:47:01.365Z,43.18
2019-06-08T13:48:01.394Z,42.85
2019-06-08T13:49:01.317Z,43.16
2019-06-08T13:50:01.311Z,42.35
2019-06-08T13:51:01.326Z,43.16
2019-06-08T13:52:01.319Z,41.67
2019-06-08T13:53:01.277Z,41.99
2019-06-08T13:54:01.275Z,42.72
2019-06-08T13:55:01.299Z,43.32
2019-06-08T13:56:01.243Z,43.44
2019-06-08T13:57:01.247Z,41.71
2019-06-08T13:58:01.273Z,41.71
2019-06-08T13:59:01.259Z,42.02
2019-06-08T14:00:01.220Z,42.91
2019-06-08T14:01:01.195Z,42.94
2019-06-08T14:02:01.190Z,43.24
2019-06-08T14:05:24.032Z,43.64
2019-06-08T14:06:21.696Z,43.34
2019-06-08T14:07:23.770Z,43.94
2019-06-08T14:08:22.402Z,44.16
2019-06-08T14:09:19.324Z,44.42
2019-06-08T14:10:21.269Z,44.00
2019-06-08T14:11:19.665Z,43.08
2019-06-08T14:12:21.655Z,42.96
2019-06-08T14:13:24.560Z,42.88
2019-06-08T14:14:21.214Z,43.68
2019-06-08T14:15:19.313Z,44.38
2019-06-08T14:16:21.582Z,44.16
2019-06-08T14:17:20.931Z,42.47
2019-06-08T14:18:24.984Z,43.48
2019-06-08T14:19:22.801Z,42.97
2019-06-08T14:20:19.872Z,43.66
2019-06-08T14:21:28.050Z,43.27
2019-06-08T14:22:21.799Z,43.35
2019-06-08T14:23:21.076Z,42.96
2019-06-08T14:24:25.730Z,42.96
2019-06-08T14:25:21.718Z,43.85
2019-06-08T14:26:20.121Z,43.26
2019-06-08T14:27:19.349Z,43.46
2019-06-08T14:28:21.072Z,43.77
2019-06-08T14:29:20.202Z,44.18
2019-06-08T14:30:20.541Z,43.88
2019-06-08T14:31:21.872Z,44.00
2019-06-08T14:32:19.565Z,44.12
2019-06-08T14:33:24.169Z,44.12
2019-06-08T14:34:21.818Z,44.34
2019-06-08T14:35:21.981Z,43.84
2019-06-08T14:36:21.601Z,43.76
2019-06-08T14:37:18.408Z,43.98
2019-06-08T14:38:23.845Z,43.98
2019-06-08T14:39:20.602Z,44.28
2019-06-08T14:40:19.348Z,44.99
2019-06-08T14:41:19.798Z,44.60
2019-06-08T14:42:23.255Z,44.00
2019-06-08T14:43:19.910Z,44.40
2019-06-08T14:44:19.881Z,44.89
2019-06-08T14:45:19.666Z,44.00
2019-06-08T14:46:19.878Z,44.51
2019-06-08T14:47:18.753Z,44.18
2019-06-08T14:48:21.976Z,44.28
2019-06-08T14:49:26.518Z,44.28
2019-06-08T14:50:20.211Z,43.96
2019-06-08T14:51:18.693Z,44.74
2019-06-08T14:52:19.368Z,45.02
2019-06-08T14:53:19.879Z,43.90
2019-06-08T14:54:22.482Z,42.97
2019-06-08T14:55:20.740Z,43.26
2019-06-08T14:56:19.787Z,41.96
2019-06-08T14:57:19.358Z,42.96
2019-06-08T14:58:23.136Z,42.27
2019-06-08T14:59:21.567Z,42.97
2019-06-08T15:00:20.497Z,42.97
2019-06-08T15:01:20.032Z,43.18
2019-06-08T15:02:19.390Z,43.48
2019-06-08T15:03:19.709Z,43.48
2019-06-08T15:04:20.269Z,43.80
2019-06-08T15:05:19.594Z,43.90
2019-06-08T15:06:19.331Z,45.04
2019-06-08T15:07:20.655Z,44.84
2019-06-08T15:08:19.577Z,45.54
2019-06-08T15:09:19.343Z,45.14
2019-06-08T15:10:18.791Z,44.84
2019-06-08T15:11:19.410Z,45.26
2019-06-08T15:12:19.343Z,45.65
2019-06-08T15:13:18.860Z,45.62
2019-06-08T15:14:17.998Z,45.83
2019-06-08T15:15:18.751Z,46.03
2019-06-08T15:16:18.272Z,45.70
2019-06-08T15:17:17.963Z,43.90
2019-06-08T15:18:18.542Z,44.00
2019-06-08T15:19:18.480Z,44.30
2019-06-08T15:20:17.931Z,44.60
2019-06-08T15:21:21.331Z,45.32
2019-06-08T15:22:20.756Z,44.32
2019-06-08T15:23:21.263Z,44.32
2019-06-08T15:24:18.545Z,44.62
2019-06-08T15:25:18.512Z,45.02
2019-06-08T15:26:27.090Z,45.02
2019-06-08T15:27:21.517Z,44.62
2019-06-08T15:28:18.299Z,44.74
2019-06-08T15:29:17.830Z,44.64
2019-06-08T15:30:17.944Z,45.25
2019-06-08T15:31:18.438Z,44.74
2019-06-08T15:32:17.984Z,44.72
2019-06-08T15:33:18.172Z,44.64
2019-06-08T15:34:18.107Z,44.34
2019-06-08T15:35:18.160Z,44.32
2019-06-08T15:36:20.220Z,43.92
2019-06-08T15:37:18.568Z,44.40
2019-06-08T15:38:20.862Z,45.00
2019-06-08T15:39:18.082Z,42.90
2019-06-08T15:40:17.865Z,42.99
2019-06-08T15:41:21.398Z,43.42
2019-06-08T15:42:18.686Z,43.30
2019-06-08T15:43:18.261Z,42.99
2019-06-08T15:44:21.118Z,42.80
2019-06-08T15:45:18.646Z,43.10
2019-06-08T15:46:18.382Z,41.69
2019-06-08T15:47:18.107Z,43.10
2019-06-08T15:48:20.208Z,43.10
2019-06-08T15:49:18.587Z,42.97
2019-06-08T15:50:18.057Z,42.88
2019-06-08T15:51:17.589Z,43.08
2019-06-08T15:52:17.633Z,42.85
2019-06-08T15:53:18.405Z,41.97
2019-06-08T15:54:17.552Z,41.99
2019-06-08T15:55:19.354Z,43.42
2019-06-08T15:56:18.690Z,42.82
2019-06-08T15:57:18.092Z,43.62
2019-06-08T15:58:18.277Z,44.44
2019-06-08T15:59:17.492Z,44.24
2019-06-08T16:00:18.505Z,43.94
2019-06-08T16:01:17.467Z,43.76
2019-06-08T16:02:17.459Z,44.36
2019-06-08T16:03:17.468Z,43.84
2019-06-08T16:04:17.437Z,43.44
2019-06-08T16:05:17.426Z,43.56
2019-06-08T16:06:17.414Z,44.06
2019-06-08T16:07:17.413Z,43.74
2019-06-08T16:08:17.391Z,44.04
2019-06-08T16:09:17.393Z,44.24
2019-06-08T16:10:17.372Z,44.74
2019-06-08T16:11:17.366Z,43.84
2019-06-08T16:12:17.365Z,45.04
2019-06-08T16:13:17.337Z,44.76
2019-06-08T16:14:17.336Z,46.17
2019-06-08T16:15:17.319Z,46.27
2019-06-08T16:16:17.304Z,46.17
2019-06-08T16:17:17.300Z,45.65
2019-06-08T16:18:17.290Z,45.54
2019-06-08T16:19:17.286Z,45.25
2019-06-08T16:20:17.266Z,44.64
2019-06-08T16:21:17.277Z,45.65
2019-06-08T16:22:17.235Z,44.04
2019-06-08T16:23:17.226Z,43.14
2019-06-08T16:24:17.222Z,43.04
2019-06-08T16:25:17.200Z,43.44
2019-06-08T16:26:17.194Z,43.74
2019-06-08T16:27:17.186Z,43.84
2019-06-08T16:28:17.170Z,42.33
2019-06-08T16:29:17.196Z,42.96
2019-06-08T16:30:17.150Z,42.96
2019-06-08T16:31:17.152Z,42.96
2019-06-08T16:32:17.124Z,43.74
2019-06-08T16:33:17.116Z,43.74
2019-06-08T16:34:17.134Z,43.34
2019-06-08T16:35:17.088Z,43.56
2019-06-08T16:36:17.087Z,43.46
2019-06-08T16:37:17.083Z,44.36
2019-06-08T16:38:17.056Z,43.96
2019-06-08T16:39:17.074Z,44.38
2019-06-08T16:40:17.036Z,44.89
2019-06-08T16:41:17.026Z,44.28
2019-06-08T16:42:17.011Z,44.99
2019-06-08T16:43:16.998Z,44.89
2019-06-08T16:44:16.995Z,44.91
2019-06-08T16:45:16.982Z,45.61
2019-06-08T16:46:16.966Z,46.11
2019-06-08T16:47:16.958Z,46.22
2019-06-08T16:48:16.957Z,46.41
2019-06-08T16:49:16.961Z,46.80
2019-06-08T16:50:24.390Z,46.80
2019-06-08T16:51:17.909Z,46.72
2019-06-08T16:52:17.376Z,46.61
2019-06-08T16:53:16.886Z,46.84
2019-06-08T16:54:16.887Z,46.92
2019-06-08T16:55:16.862Z,46.94
2019-06-08T16:56:16.853Z,46.94
2019-06-08T16:57:16.839Z,46.73
2019-06-08T16:58:16.828Z,46.84
2019-06-08T16:59:16.826Z,46.73
2019-06-08T17:00:30.732Z,46.54
2019-06-08T17:01:17.796Z,47.74
2019-06-08T17:02:17.165Z,46.73
2019-06-08T17:03:16.773Z,46.64
2019-06-08T17:04:16.828Z,46.64
2019-06-08T17:05:16.748Z,46.56
2019-06-08T17:06:16.736Z,46.56
2019-06-08T17:07:16.723Z,47.54
2019-06-08T17:08:16.722Z,47.54
2019-06-08T17:09:16.706Z,46.86
2019-06-08T17:10:16.699Z,47.54
2019-06-08T17:11:16.683Z,47.14
2019-06-08T17:12:16.668Z,47.24
2019-06-08T17:13:16.654Z,47.14
2019-06-08T17:14:16.646Z,47.14
2019-06-08T17:15:16.654Z,47.94
2019-06-08T17:16:16.624Z,48.25
2019-06-08T17:17:16.616Z,48.17
2019-06-08T17:18:16.619Z,49.35
2019-06-08T17:19:16.587Z,50.48
2019-06-08T17:20:16.589Z,52.09
2019-06-08T17:21:16.593Z,57.88
2019-06-08T17:22:16.554Z,65.01
2019-06-08T17:23:16.572Z,68.01
2019-06-08T17:24:16.529Z,71.10
2019-06-08T17:25:16.529Z,72.68
2019-06-08T17:26:16.538Z,72.31
2019-06-08T17:27:26.428Z,72.95
2019-06-08T17:28:17.746Z,74.91
2019-06-08T17:29:16.476Z,75.52
2019-06-08T17:30:16.474Z,75.62
2019-06-08T17:31:16.456Z,73.83
2019-06-08T17:32:16.442Z,72.92
2019-06-08T17:33:16.442Z,73.53
2019-06-08T17:34:16.415Z,74.44
2019-06-08T17:35:16.422Z,74.04
2019-06-08T17:36:16.392Z,73.22
2019-06-08T17:37:16.381Z,72.11
2019-06-08T17:38:16.372Z,71.70
2019-06-08T17:39:16.361Z,70.69
2019-06-08T17:40:16.358Z,71.40
2019-06-08T17:41:16.340Z,70.59
2019-06-08T17:42:16.482Z,70.36
2019-06-08T17:43:16.313Z,71.67
2019-06-08T17:44:16.339Z,72.17
2019-06-08T17:45:16.299Z,71.57
2019-06-08T17:46:16.281Z,71.97
2019-06-08T17:47:16.274Z,71.67
2019-06-08T17:48:16.265Z,72.08
2019-06-08T17:49:16.260Z,72.24
2019-06-08T17:50:16.249Z,72.34
2019-06-08T17:51:16.226Z,71.26
2019-06-08T17:52:16.235Z,70.73
2019-06-08T17:53:16.203Z,70.52
2019-06-08T17:54:16.195Z,71.03
2019-06-08T17:55:16.190Z,71.33
2019-06-08T17:56:16.209Z,71.13
2019-06-08T17:57:16.156Z,67.49
2019-06-08T17:58:16.144Z,67.49
2019-06-08T17:59:16.133Z,67.15
2019-06-08T18:00:16.152Z,65.94
2019-06-08T18:01:16.177Z,66.55
2019-06-08T18:02:25.369Z,66.55
2019-06-08T18:03:17.339Z,66.78
2019-06-08T18:04:17.500Z,66.78
2019-06-08T18:05:17.967Z,65.73
2019-06-08T18:06:17.948Z,66.78
2019-06-08T18:07:17.116Z,65.67
2019-06-08T18:08:17.517Z,65.67
2019-06-08T18:09:17.800Z,66.58
2019-06-08T18:10:17.990Z,66.98
2019-06-08T18:11:17.340Z,65.47
2019-06-08T18:12:18.125Z,64.65
2019-06-08T18:13:18.296Z,66.58
2019-06-08T18:14:18.065Z,66.17
2019-06-08T18:15:17.436Z,65.06
2019-06-08T18:16:17.547Z,64.79
2019-06-08T18:17:17.727Z,65.26
2019-06-08T18:18:17.622Z,64.25
2019-06-08T18:19:17.196Z,65.16
2019-06-08T18:20:17.779Z,65.94
2019-06-08T18:21:17.745Z,65.56
2019-06-08T18:22:18.571Z,65.77
2019-06-08T18:23:17.355Z,63.44
2019-06-08T18:24:17.524Z,64.35
2019-06-08T18:25:17.331Z,63.75
2019-06-08T18:26:17.236Z,64.45
2019-06-08T18:27:18.060Z,64.96
2019-06-08T18:28:17.233Z,65.47
2019-06-08T18:29:18.031Z,65.16
2019-06-08T18:30:18.756Z,65.26
2019-06-08T18:31:17.989Z,65.77
2019-06-08T18:32:17.977Z,66.17
2019-06-08T18:33:17.915Z,64.76
2019-06-08T18:34:17.832Z,65.06
2019-06-08T18:35:18.055Z,65.67
2019-06-08T18:36:17.398Z,64.76
2019-06-08T18:37:17.892Z,65.56
2019-06-08T18:38:17.787Z,64.96
2019-06-08T18:39:17.870Z,65.56
2019-06-08T18:40:17.998Z,65.67
2019-06-08T18:41:17.691Z,65.87
2019-06-08T18:42:17.628Z,65.26
2019-06-08T18:43:17.042Z,65.70
2019-06-08T18:44:17.417Z,65.26
2019-06-08T18:45:18.014Z,65.26
2019-06-08T18:46:17.832Z,65.70
2019-06-08T18:47:17.671Z,65.47
